sensor_id;sensor_type;location;lat;lon;timestamp;pressure;altitude;pressure_sealevel;temperature;humidity
28344;BME280;15597;50.914;6.638;2023-08-06T00:00:05;99640.78;;;20.85;53.43
28344;BME280;15597;50.914;6.638;2023-08-06T00:02:34;99634.91;;;20.82;53.38
28344;BME280;15597;50.914;6.638;2023-08-06T00:05:00;99632.34;;;20.80;53.46
28344;BME280;15597;50.914;6.638;2023-08-06T00:07:25;99628.22;;;20.76;53.98
28344;BME280;15597;50.914;6.638;2023-08-06T00:09:51;99624.09;;;20.72;53.98
28344;BME280;15597;50.914;6.638;2023-08-06T00:12:16;99627.00;;;20.69;53.93
28344;BME280;15597;50.914;6.638;2023-08-06T00:14:42;99627.13;;;20.67;53.92
28344;BME280;15597;50.914;6.638;2023-08-06T00:17:08;99622.91;;;20.65;54.04
28344;BME280;15597;50.914;6.638;2023-08-06T00:19:33;99632.56;;;20.66;53.93
28344;BME280;15597;50.914;6.638;2023-08-06T00:21:59;99636.06;;;20.66;53.93
28344;BME280;15597;50.914;6.638;2023-08-06T00:24:24;99635.69;;;20.71;53.78
28344;BME280;15597;50.914;6.638;2023-08-06T00:26:50;99629.06;;;20.77;53.67
28344;BME280;15597;50.914;6.638;2023-08-06T00:29:15;99624.13;;;20.83;53.51
28344;BME280;15597;50.914;6.638;2023-08-06T00:31:41;99627.00;;;20.92;53.22
28344;BME280;15597;50.914;6.638;2023-08-06T00:34:07;99629.41;;;20.95;53.51
28344;BME280;15597;50.914;6.638;2023-08-06T00:36:32;99636.19;;;20.99;53.21
28344;BME280;15597;50.914;6.638;2023-08-06T00:38:58;99633.16;;;21.04;53.21
28344;BME280;15597;50.914;6.638;2023-08-06T00:41:23;99630.13;;;21.08;53.43
28344;BME280;15597;50.914;6.638;2023-08-06T00:43:49;99640.50;;;21.11;53.34
28344;BME280;15597;50.914;6.638;2023-08-06T00:46:14;99633.50;;;21.10;53.34
28344;BME280;15597;50.914;6.638;2023-08-06T00:48:41;99628.31;;;21.09;53.00
28344;BME280;15597;50.914;6.638;2023-08-06T00:51:10;99628.66;;;21.04;53.33
28344;BME280;15597;50.914;6.638;2023-08-06T00:53:39;99628.91;;;21.01;53.58
28344;BME280;15597;50.914;6.638;2023-08-06T00:56:06;99627.22;;;21.00;53.92
28344;BME280;15597;50.914;6.638;2023-08-06T00:58:34;99630.88;;;20.99;53.58
28344;BME280;15597;50.914;6.638;2023-08-06T01:01:00;99627.94;;;21.02;53.63
28344;BME280;15597;50.914;6.638;2023-08-06T01:03:26;99619.72;;;21.05;53.24
28344;BME280;15597;50.914;6.638;2023-08-06T01:05:51;99617.78;;;21.07;53.02
28344;BME280;15597;50.914;6.638;2023-08-06T01:08:39;99619.72;;;21.05;53.17
28344;BME280;15597;50.914;6.638;2023-08-06T01:13:59;99622.28;;;21.07;53.16
28344;BME280;15597;50.914;6.638;2023-08-06T01:16:28;99619.47;;;21.08;53.70
28344;BME280;15597;50.914;6.638;2023-08-06T01:18:57;99619.72;;;21.05;53.30
28344;BME280;15597;50.914;6.638;2023-08-06T01:21:23;99609.09;;;21.05;53.30
28344;BME280;15597;50.914;6.638;2023-08-06T01:23:49;99613.69;;;21.03;53.16
28344;BME280;15597;50.914;6.638;2023-08-06T01:26:30;99611.03;;;21.03;53.55
28344;BME280;15597;50.914;6.638;2023-08-06T01:29:23;99622.16;;;20.97;53.79
28344;BME280;15597;50.914;6.638;2023-08-06T01:31:51;99614.91;;;20.99;53.65
28344;BME280;15597;50.914;6.638;2023-08-06T01:34:21;99617.47;;;21.00;53.36
28344;BME280;15597;50.914;6.638;2023-08-06T01:36:48;99610.19;;;21.02;53.68
28344;BME280;15597;50.914;6.638;2023-08-06T01:39:15;99611.88;;;21.04;53.33
28344;BME280;15597;50.914;6.638;2023-08-06T01:41:41;99604.63;;;21.06;53.15
28344;BME280;15597;50.914;6.638;2023-08-06T01:44:06;99607.16;;;21.07;53.00
28344;BME280;15597;50.914;6.638;2023-08-06T01:46:32;99601.81;;;21.07;52.98
28344;BME280;15597;50.914;6.638;2023-08-06T01:48:57;99601.56;;;21.10;53.32
28344;BME280;15597;50.914;6.638;2023-08-06T01:51:23;99592.63;;;21.11;52.92
28344;BME280;15597;50.914;6.638;2023-08-06T01:53:49;99585.38;;;21.13;52.73
28344;BME280;15597;50.914;6.638;2023-08-06T01:56:14;99591.16;;;21.19;52.99
28344;BME280;15597;50.914;6.638;2023-08-06T01:58:40;99587.66;;;21.18;52.88
28344;BME280;15597;50.914;6.638;2023-08-06T02:01:06;99587.06;;;21.14;53.00
28344;BME280;15597;50.914;6.638;2023-08-06T02:03:31;99580.03;;;21.13;53.27
28344;BME280;15597;50.914;6.638;2023-08-06T02:05:57;99580.19;;;21.12;52.89
28344;BME280;15597;50.914;6.638;2023-08-06T02:08:23;99581.28;;;21.09;53.33
28344;BME280;15597;50.914;6.638;2023-08-06T02:10:48;99577.06;;;21.07;53.25
28344;BME280;15597;50.914;6.638;2023-08-06T02:13:14;99577.16;;;21.05;53.17
28344;BME280;15597;50.914;6.638;2023-08-06T02:15:44;99572.97;;;21.02;53.10
28344;BME280;15597;50.914;6.638;2023-08-06T02:18:10;99573.69;;;21.05;53.30
28344;BME280;15597;50.914;6.638;2023-08-06T02:20:35;99566.53;;;21.05;53.21
28344;BME280;15597;50.914;6.638;2023-08-06T02:23:01;99569.91;;;21.07;53.21
28344;BME280;15597;50.914;6.638;2023-08-06T02:25:27;99560.00;;;21.09;53.22
28344;BME280;15597;50.914;6.638;2023-08-06T02:27:52;99570.63;;;21.09;53.32
28344;BME280;15597;50.914;6.638;2023-08-06T02:30:18;99562.66;;;21.09;53.53
28344;BME280;15597;50.914;6.638;2023-08-06T02:32:43;99561.69;;;21.10;53.40
28344;BME280;15597;50.914;6.638;2023-08-06T02:35:09;99564.09;;;21.13;53.21
28344;BME280;15597;50.914;6.638;2023-08-06T02:37:35;99557.09;;;21.12;53.39
28344;BME280;15597;50.914;6.638;2023-08-06T02:40:00;99558.19;;;21.10;53.59
28344;BME280;15597;50.914;6.638;2023-08-06T02:42:26;99560.47;;;21.14;53.36
28344;BME280;15597;50.914;6.638;2023-08-06T02:44:52;99555.84;;;21.16;53.48
28344;BME280;15597;50.914;6.638;2023-08-06T02:47:20;99551.25;;;21.19;53.08
28344;BME280;15597;50.914;6.638;2023-08-06T02:49:46;99558.25;;;21.20;52.76
28344;BME280;15597;50.914;6.638;2023-08-06T02:52:12;99561.66;;;21.22;53.08
28344;BME280;15597;50.914;6.638;2023-08-06T02:54:37;99554.41;;;21.24;52.77
28344;BME280;15597;50.914;6.638;2023-08-06T02:57:05;99547.13;;;21.26;52.88
28344;BME280;15597;50.914;6.638;2023-08-06T02:59:32;99544.59;;;21.24;52.68
28344;BME280;15597;50.914;6.638;2023-08-06T03:02:04;99544.47;;;21.26;53.10
28344;BME280;15597;50.914;6.638;2023-08-06T03:04:41;99545.44;;;21.25;53.04
28344;BME280;15597;50.914;6.638;2023-08-06T03:07:07;99538.19;;;21.27;52.96
28344;BME280;15597;50.914;6.638;2023-08-06T03:09:41;99535.53;;;21.27;52.73
28344;BME280;15597;50.914;6.638;2023-08-06T03:12:07;99541.56;;;21.29;53.07
28344;BME280;15597;50.914;6.638;2023-08-06T03:14:33;99535.28;;;21.30;52.63
28344;BME280;15597;50.914;6.638;2023-08-06T03:16:58;99530.66;;;21.32;52.82
28344;BME280;15597;50.914;6.638;2023-08-06T03:19:24;99528.00;;;21.32;52.58
28344;BME280;15597;50.914;6.638;2023-08-06T03:21:50;99529.69;;;21.33;53.11
28344;BME280;15597;50.914;6.638;2023-08-06T03:24:16;99528.72;;;21.34;52.98
28344;BME280;15597;50.914;6.638;2023-08-06T03:26:42;99519.75;;;21.35;52.52
28344;BME280;15597;50.914;6.638;2023-08-06T03:29:09;99523.13;;;21.37;52.38
28344;BME280;15597;50.914;6.638;2023-08-06T03:31:35;99533.78;;;21.37;52.64
28344;BME280;15597;50.914;6.638;2023-08-06T03:34:01;99531.84;;;21.39;52.47
28344;BME280;15597;50.914;6.638;2023-08-06T03:36:28;99533.53;;;21.40;52.82
28344;BME280;15597;50.914;6.638;2023-08-06T03:38:54;99534.50;;;21.39;52.35
28344;BME280;15597;50.914;6.638;2023-08-06T03:41:20;99520.47;;;21.37;52.53
28344;BME280;15597;50.914;6.638;2023-08-06T03:43:46;99513.59;;;21.35;53.08
28344;BME280;15597;50.914;6.638;2023-08-06T03:46:18;99518.06;;;21.34;53.08
28344;BME280;15597;50.914;6.638;2023-08-06T03:48:43;99527.28;;;21.30;52.99
28344;BME280;15597;50.914;6.638;2023-08-06T03:51:09;99527.09;;;21.22;53.77
28344;BME280;15597;50.914;6.638;2023-08-06T03:53:36;99525.88;;;21.14;53.61
28344;BME280;15597;50.914;6.638;2023-08-06T03:56:02;99521.06;;;21.08;53.82
28344;BME280;15597;50.914;6.638;2023-08-06T03:58:30;99529.31;;;21.05;53.84
28344;BME280;15597;50.914;6.638;2023-08-06T04:00:59;99528.59;;;21.03;53.67
28344;BME280;15597;50.914;6.638;2023-08-06T04:03:28;99527.38;;;21.07;53.96
28344;BME280;15597;50.914;6.638;2023-08-06T04:05:54;99529.06;;;21.08;53.90
28344;BME280;15597;50.914;6.638;2023-08-06T04:08:19;99527.09;;;21.10;53.57
28344;BME280;15597;50.914;6.638;2023-08-06T04:10:45;99521.78;;;21.10;53.62
28344;BME280;15597;50.914;6.638;2023-08-06T04:13:14;99533.16;;;21.12;53.50
28344;BME280;15597;50.914;6.638;2023-08-06T04:15:40;99525.78;;;21.16;53.59
28344;BME280;15597;50.914;6.638;2023-08-06T04:18:05;99529.97;;;21.19;53.21
28344;BME280;15597;50.914;6.638;2023-08-06T04:20:31;99529.75;;;21.22;53.41
28344;BME280;15597;50.914;6.638;2023-08-06T04:22:57;99527.81;;;21.24;53.02
28344;BME280;15597;50.914;6.638;2023-08-06T04:25:23;99525.84;;;21.26;53.29
28344;BME280;15597;50.914;6.638;2023-08-06T04:27:50;99529.22;;;21.28;53.32
28344;BME280;15597;50.914;6.638;2023-08-06T04:30:15;99528.97;;;21.31;53.21
28344;BME280;15597;50.914;6.638;2023-08-06T04:32:41;99532.34;;;21.33;52.73
28344;BME280;15597;50.914;6.638;2023-08-06T04:35:07;99518.06;;;21.34;53.16
28344;BME280;15597;50.914;6.638;2023-08-06T04:37:34;99529.44;;;21.36;53.39
28344;BME280;15597;50.914;6.638;2023-08-06T04:40:00;99533.78;;;21.37;52.98
28344;BME280;15597;50.914;6.638;2023-08-06T04:42:25;99529.03;;;21.41;53.02
28344;BME280;15597;50.914;6.638;2023-08-06T04:44:51;99524.56;;;21.41;53.03
28344;BME280;15597;50.914;6.638;2023-08-06T04:47:16;99525.41;;;21.42;53.21
28344;BME280;15597;50.914;6.638;2023-08-06T04:49:42;99531.56;;;21.42;53.17
28344;BME280;15597;50.914;6.638;2023-08-06T04:52:08;99530.72;;;21.42;52.68
28344;BME280;15597;50.914;6.638;2023-08-06T04:54:33;99531.31;;;21.45;53.19
28344;BME280;15597;50.914;6.638;2023-08-06T04:56:59;99533.00;;;21.47;53.19
28344;BME280;15597;50.914;6.638;2023-08-06T04:59:25;99526.72;;;21.48;52.75
28344;BME280;15597;50.914;6.638;2023-08-06T05:01:50;99527.44;;;21.50;53.10
28344;BME280;15597;50.914;6.638;2023-08-06T05:04:16;99532.50;;;21.53;53.63
28344;BME280;15597;50.914;6.638;2023-08-06T05:06:41;99534.19;;;21.54;53.29
28344;BME280;15597;50.914;6.638;2023-08-06T05:09:07;99533.06;;;21.56;52.95
28344;BME280;15597;50.914;6.638;2023-08-06T05:11:33;99529.31;;;21.59;53.33
28344;BME280;15597;50.914;6.638;2023-08-06T05:13:59;99535.34;;;21.61;52.99
28344;BME280;15597;50.914;6.638;2023-08-06T05:16:24;99536.16;;;21.62;52.72
28344;BME280;15597;50.914;6.638;2023-08-06T05:18:50;99538.81;;;21.62;53.02
28344;BME280;15597;50.914;6.638;2023-08-06T05:21:16;99538.75;;;21.63;52.71
28344;BME280;15597;50.914;6.638;2023-08-06T05:23:42;99540.44;;;21.64;52.30
28344;BME280;15597;50.914;6.638;2023-08-06T05:26:08;99542.84;;;21.67;53.08
28344;BME280;15597;50.914;6.638;2023-08-06T05:28:34;99539.91;;;21.70;52.49
28344;BME280;15597;50.914;6.638;2023-08-06T05:31:06;99538.22;;;21.69;52.47
28344;BME280;15597;50.914;6.638;2023-08-06T05:33:32;99538.78;;;21.73;53.00
28344;BME280;15597;50.914;6.638;2023-08-06T05:35:57;99551.97;;;21.74;52.77
28344;BME280;15597;50.914;6.638;2023-08-06T05:38:23;99549.22;;;21.76;52.30
28344;BME280;15597;50.914;6.638;2023-08-06T05:40:48;99548.09;;;21.79;52.70
28344;BME280;15597;50.914;6.638;2023-08-06T05:43:15;99546.13;;;21.81;52.69
28344;BME280;15597;50.914;6.638;2023-08-06T05:45:44;99557.75;;;21.80;52.50
28344;BME280;15597;50.914;6.638;2023-08-06T05:48:10;99554.84;;;21.83;52.86
28344;BME280;15597;50.914;6.638;2023-08-06T05:50:36;99557.50;;;21.83;52.68
28344;BME280;15597;50.914;6.638;2023-08-06T05:53:01;99558.47;;;21.82;52.61
28344;BME280;15597;50.914;6.638;2023-08-06T05:55:27;99554.28;;;21.79;52.39
28344;BME280;15597;50.914;6.638;2023-08-06T05:57:53;99567.44;;;21.81;52.89
28344;BME280;15597;50.914;6.638;2023-08-06T06:00:18;99565.75;;;21.80;52.46
28344;BME280;15597;50.914;6.638;2023-08-06T06:02:45;99569.13;;;21.82;53.00
28344;BME280;15597;50.914;6.638;2023-08-06T06:05:11;99568.41;;;21.80;53.04
28344;BME280;15597;50.914;6.638;2023-08-06T06:07:36;99567.44;;;21.81;52.74
28344;BME280;15597;50.914;6.638;2023-08-06T06:10:02;99562.13;;;21.81;53.26
28344;BME280;15597;50.914;6.638;2023-08-06T06:12:28;99568.28;;;21.81;52.92
28344;BME280;15597;50.914;6.638;2023-08-06T06:14:54;99577.25;;;21.80;52.79
28344;BME280;15597;50.914;6.638;2023-08-06T06:17:19;99570.34;;;21.78;52.86
28344;BME280;15597;50.914;6.638;2023-08-06T06:19:45;99583.34;;;21.71;52.69
28344;BME280;15597;50.914;6.638;2023-08-06T06:22:11;99592.69;;;21.65;52.66
28344;BME280;15597;50.914;6.638;2023-08-06T06:24:36;99590.25;;;21.62;52.60
28344;BME280;15597;50.914;6.638;2023-08-06T06:27:02;99590.25;;;21.62;52.83
28344;BME280;15597;50.914;6.638;2023-08-06T06:29:28;99594.72;;;21.62;53.30
28344;BME280;15597;50.914;6.638;2023-08-06T06:31:53;99586.88;;;21.60;53.13
28344;BME280;15597;50.914;6.638;2023-08-06T06:34:19;99594.97;;;21.58;53.22
28344;BME280;15597;50.914;6.638;2023-08-06T06:36:44;99596.81;;;21.58;53.73
28344;BME280;15597;50.914;6.638;2023-08-06T06:39:10;99602.00;;;21.59;54.19
28344;BME280;15597;50.914;6.638;2023-08-06T06:41:35;99593.91;;;21.61;53.91
28344;BME280;15597;50.914;6.638;2023-08-06T06:44:09;99600.91;;;21.62;53.98
28344;BME280;15597;50.914;6.638;2023-08-06T06:46:35;99599.22;;;21.61;53.84
28344;BME280;15597;50.914;6.638;2023-08-06T06:49:01;99597.31;;;21.63;53.68
28344;BME280;15597;50.914;6.638;2023-08-06T06:51:26;99606.00;;;21.65;54.35
28344;BME280;15597;50.914;6.638;2023-08-06T06:53:52;99599.00;;;21.64;53.44
28344;BME280;15597;50.914;6.638;2023-08-06T06:56:18;99602.63;;;21.63;53.97
28344;BME280;15597;50.914;6.638;2023-08-06T06:58:43;99609.66;;;21.64;54.13
28344;BME280;15597;50.914;6.638;2023-08-06T07:01:09;99608.53;;;21.67;53.49
28344;BME280;15597;50.914;6.638;2023-08-06T07:03:37;99608.66;;;21.65;54.23
28344;BME280;15597;50.914;6.638;2023-08-06T07:06:03;99614.97;;;21.64;54.05
28344;BME280;15597;50.914;6.638;2023-08-06T07:08:29;99613.03;;;21.66;54.02
28344;BME280;15597;50.914;6.638;2023-08-06T07:11:04;99609.66;;;21.64;54.02
28344;BME280;15597;50.914;6.638;2023-08-06T07:13:31;99615.53;;;21.68;53.31
28344;BME280;15597;50.914;6.638;2023-08-06T07:15:57;99616.41;;;21.68;53.47
28344;BME280;15597;50.914;6.638;2023-08-06T07:18:23;99616.41;;;21.68;53.58
28344;BME280;15597;50.914;6.638;2023-08-06T07:20:52;99617.13;;;21.70;53.18
28344;BME280;15597;50.914;6.638;2023-08-06T07:23:20;99612.25;;;21.76;54.07
28344;BME280;15597;50.914;6.638;2023-08-06T07:25:46;99621.25;;;21.63;54.13
28344;BME280;15597;50.914;6.638;2023-08-06T07:28:13;99623.16;;;21.72;53.76
28344;BME280;15597;50.914;6.638;2023-08-06T07:30:39;99623.50;;;21.79;53.47
28344;BME280;15597;50.914;6.638;2023-08-06T07:33:06;99616.78;;;21.85;53.63
28344;BME280;15597;50.914;6.638;2023-08-06T07:35:32;99624.66;;;21.86;53.15
28344;BME280;15597;50.914;6.638;2023-08-06T07:37:58;99627.19;;;21.88;53.42
28344;BME280;15597;50.914;6.638;2023-08-06T07:40:23;99625.50;;;21.87;53.19
28344;BME280;15597;50.914;6.638;2023-08-06T07:42:49;99623.81;;;21.86;53.79
28344;BME280;15597;50.914;6.638;2023-08-06T07:45:15;99624.94;;;21.83;53.94
28344;BME280;15597;50.914;6.638;2023-08-06T07:47:40;99623.34;;;21.81;53.74
28344;BME280;15597;50.914;6.638;2023-08-06T07:50:06;99627.97;;;21.79;53.92
28344;BME280;15597;50.914;6.638;2023-08-06T07:52:32;99628.94;;;21.78;54.13
28344;BME280;15597;50.914;6.638;2023-08-06T07:54:57;99624.59;;;21.77;53.57
28344;BME280;15597;50.914;6.638;2023-08-06T07:57:24;99633.28;;;21.79;53.70
28344;BME280;15597;50.914;6.638;2023-08-06T07:59:49;99626.28;;;21.78;53.95
28344;BME280;15597;50.914;6.638;2023-08-06T08:02:14;99634.53;;;21.74;54.64
28344;BME280;15597;50.914;6.638;2023-08-06T08:04:40;99635.50;;;21.73;54.56
28344;BME280;15597;50.914;6.638;2023-08-06T08:07:06;99631.84;;;21.74;54.52
28344;BME280;15597;50.914;6.638;2023-08-06T08:09:31;99642.50;;;21.74;54.47
28344;BME280;15597;50.914;6.638;2023-08-06T08:11:57;99646.84;;;21.76;53.86
28344;BME280;15597;50.914;6.638;2023-08-06T08:14:24;99642.50;;;21.74;54.17
28344;BME280;15597;50.914;6.638;2023-08-06T08:16:49;99652.91;;;21.78;54.40
28344;BME280;15597;50.914;6.638;2023-08-06T08:19:15;99644.91;;;21.78;54.07
28344;BME280;15597;50.914;6.638;2023-08-06T08:21:40;99657.25;;;21.79;54.30
28344;BME280;15597;50.914;6.638;2023-08-06T08:24:06;99656.16;;;21.81;54.42
28344;BME280;15597;50.914;6.638;2023-08-06T08:26:31;99665.84;;;21.82;54.59
28344;BME280;15597;50.914;6.638;2023-08-06T08:28:57;99671.75;;;21.86;54.97
28344;BME280;15597;50.914;6.638;2023-08-06T08:31:23;99664.47;;;21.88;54.62
28344;BME280;15597;50.914;6.638;2023-08-06T08:33:48;99669.53;;;21.91;55.01
28344;BME280;15597;50.914;6.638;2023-08-06T08:36:14;99673.63;;;21.95;54.45
28344;BME280;15597;50.914;6.638;2023-08-06T08:38:40;99667.47;;;21.95;54.58
28344;BME280;15597;50.914;6.638;2023-08-06T08:41:05;99668.44;;;21.94;55.03
28344;BME280;15597;50.914;6.638;2023-08-06T08:43:32;99664.09;;;21.93;54.55
28344;BME280;15597;50.914;6.638;2023-08-06T08:46:00;99670.00;;;21.96;54.80
28344;BME280;15597;50.914;6.638;2023-08-06T08:48:27;99671.69;;;21.97;54.42
28344;BME280;15597;50.914;6.638;2023-08-06T08:50:53;99672.53;;;21.98;54.92
28344;BME280;15597;50.914;6.638;2023-08-06T08:53:21;99668.75;;;22.00;54.53
28344;BME280;15597;50.914;6.638;2023-08-06T08:55:48;99684.47;;;22.03;54.60
28344;BME280;15597;50.914;6.638;2023-08-06T08:58:14;99682.25;;;22.09;54.76
28344;BME280;15597;50.914;6.638;2023-08-06T09:00:46;99682.78;;;22.02;54.69
28344;BME280;15597;50.914;6.638;2023-08-06T09:03:12;99678.31;;;22.03;54.52
28344;BME280;15597;50.914;6.638;2023-08-06T09:05:44;99681.34;;;21.98;54.31
28344;BME280;15597;50.914;6.638;2023-08-06T09:08:12;99696.50;;;21.98;54.78
28344;BME280;15597;50.914;6.638;2023-08-06T09:10:43;99697.47;;;21.97;55.22
28344;BME280;15597;50.914;6.638;2023-08-06T09:13:09;99706.31;;;21.97;54.66
28344;BME280;15597;50.914;6.638;2023-08-06T09:15:34;99716.94;;;21.97;55.40
28344;BME280;15597;50.914;6.638;2023-08-06T09:18:09;99727.28;;;21.91;55.65
28344;BME280;15597;50.914;6.638;2023-08-06T09:20:34;99732.88;;;21.87;55.95
28344;BME280;15597;50.914;6.638;2023-08-06T09:23:09;99735.56;;;21.76;56.25
28344;BME280;15597;50.914;6.638;2023-08-06T09:25:38;99741.53;;;21.68;57.16
28344;BME280;15597;50.914;6.638;2023-08-06T09:28:03;99747.09;;;21.54;58.06
28344;BME280;15597;50.914;6.638;2023-08-06T09:30:30;99754.84;;;21.45;58.24
28344;BME280;15597;50.914;6.638;2023-08-06T09:32:59;99766.50;;;21.33;59.22
28344;BME280;15597;50.914;6.638;2023-08-06T09:35:27;99773.25;;;21.14;59.70
28344;BME280;15597;50.914;6.638;2023-08-06T09:37:52;99774.13;;;20.92;60.94
28344;BME280;15597;50.914;6.638;2023-08-06T09:40:31;99785.28;;;20.73;61.12
28344;BME280;15597;50.914;6.638;2023-08-06T09:42:58;99783.09;;;20.55;61.27
28344;BME280;15597;50.914;6.638;2023-08-06T09:45:30;99800.44;;;20.37;61.92
28344;BME280;15597;50.914;6.638;2023-08-06T09:47:57;99803.66;;;20.29;62.40
28344;BME280;15597;50.914;6.638;2023-08-06T09:50:28;99824.75;;;20.19;63.05
28344;BME280;15597;50.914;6.638;2023-08-06T09:52:54;99814.56;;;20.13;63.15
28344;BME280;15597;50.914;6.638;2023-08-06T09:55:21;99825.41;;;20.10;63.43
28344;BME280;15597;50.914;6.638;2023-08-06T09:57:47;99826.59;;;20.06;63.40
28344;BME280;15597;50.914;6.638;2023-08-06T10:00:13;99830.56;;;20.00;63.61
28344;BME280;15597;50.914;6.638;2023-08-06T10:02:40;99842.97;;;19.99;63.77
28344;BME280;15597;50.914;6.638;2023-08-06T10:05:07;99840.66;;;19.95;63.48
28344;BME280;15597;50.914;6.638;2023-08-06T10:07:34;99857.84;;;19.89;63.49
28344;BME280;15597;50.914;6.638;2023-08-06T10:10:00;99859.91;;;19.73;63.43
28344;BME280;15597;50.914;6.638;2023-08-06T10:12:28;99858.88;;;19.62;63.76
28344;BME280;15597;50.914;6.638;2023-08-06T10:14:57;99856.88;;;19.53;63.72
28344;BME280;15597;50.914;6.638;2023-08-06T10:17:25;99871.94;;;19.52;63.94
28344;BME280;15597;50.914;6.638;2023-08-06T10:19:52;99865.06;;;19.50;63.87
28344;BME280;15597;50.914;6.638;2023-08-06T10:22:20;99866.25;;;19.46;63.80
28344;BME280;15597;50.914;6.638;2023-08-06T10:27:22;99884.72;;;19.34;63.98
28344;BME280;15597;50.914;6.638;2023-08-06T10:29:48;99885.66;;;19.33;64.02
28344;BME280;15597;50.914;6.638;2023-08-06T10:32:17;99890.00;;;19.34;64.19
28344;BME280;15597;50.914;6.638;2023-08-06T10:34:53;99889.06;;;19.35;63.78
28344;BME280;15597;50.914;6.638;2023-08-06T10:37:20;99892.03;;;19.44;63.60
28344;BME280;15597;50.914;6.638;2023-08-06T10:39:53;99892.97;;;19.42;63.42
28344;BME280;15597;50.914;6.638;2023-08-06T10:42:26;99900.41;;;19.37;63.85
28344;BME280;15597;50.914;6.638;2023-08-06T10:45:15;99906.25;;;19.42;63.50
28344;BME280;15597;50.914;6.638;2023-08-06T10:47:42;99904.94;;;19.48;63.43
28344;BME280;15597;50.914;6.638;2023-08-06T10:50:14;99912.81;;;19.50;63.42
28344;BME280;15597;50.914;6.638;2023-08-06T10:52:43;99918.97;;;19.50;63.20
28344;BME280;15597;50.914;6.638;2023-08-06T10:55:09;99919.28;;;19.46;63.34
28344;BME280;15597;50.914;6.638;2023-08-06T10:57:35;99929.16;;;19.44;63.33
28344;BME280;15597;50.914;6.638;2023-08-06T11:00:04;99916.13;;;19.40;63.24
28344;BME280;15597;50.914;6.638;2023-08-06T11:02:33;99922.38;;;19.39;63.45
28344;BME280;15597;50.914;6.638;2023-08-06T11:05:07;99922.16;;;19.42;63.29
28344;BME280;15597;50.914;6.638;2023-08-06T11:07:34;99933.19;;;19.49;63.11
28344;BME280;15597;50.914;6.638;2023-08-06T11:10:08;99922.34;;;19.52;62.97
28344;BME280;15597;50.914;6.638;2023-08-06T11:12:34;99926.28;;;19.60;62.76
28344;BME280;15597;50.914;6.638;2023-08-06T11:15:02;99927.88;;;19.62;62.58
28344;BME280;15597;50.914;6.638;2023-08-06T11:17:30;99935.75;;;19.64;62.64
28344;BME280;15597;50.914;6.638;2023-08-06T11:19:59;99924.06;;;19.66;62.28
28344;BME280;15597;50.914;6.638;2023-08-06T11:22:26;99933.84;;;19.66;62.30
28344;BME280;15597;50.914;6.638;2023-08-06T11:24:53;99936.78;;;19.61;62.42
28344;BME280;15597;50.914;6.638;2023-08-06T11:27:18;99935.09;;;19.60;62.45
28344;BME280;15597;50.914;6.638;2023-08-06T11:29:44;99939.75;;;19.56;62.85
28344;BME280;15597;50.914;6.638;2023-08-06T11:32:10;99942.41;;;19.56;62.61
28344;BME280;15597;50.914;6.638;2023-08-06T11:34:37;99945.72;;;19.60;62.50
28344;BME280;15597;50.914;6.638;2023-08-06T11:37:03;99941.06;;;19.64;62.46
28344;BME280;15597;50.914;6.638;2023-08-06T11:39:47;99952.50;;;19.64;62.32
28344;BME280;15597;50.914;6.638;2023-08-06T11:42:15;99940.50;;;19.71;62.31
28344;BME280;15597;50.914;6.638;2023-08-06T11:44:42;99950.06;;;19.74;62.23
28344;BME280;15597;50.914;6.638;2023-08-06T11:47:17;99948.25;;;19.75;62.04
28344;BME280;15597;50.914;6.638;2023-08-06T11:49:47;99936.66;;;19.76;61.76
28344;BME280;15597;50.914;6.638;2023-08-06T11:52:21;99948.97;;;19.77;61.87
28344;BME280;15597;50.914;6.638;2023-08-06T11:55:06;99939.09;;;19.79;61.73
28344;BME280;15597;50.914;6.638;2023-08-06T11:57:33;99947.59;;;19.84;61.64
28344;BME280;15597;50.914;6.638;2023-08-06T12:00:04;99949.28;;;19.85;61.48
28344;BME280;15597;50.914;6.638;2023-08-06T12:02:41;99946.34;;;19.90;60.96
28344;BME280;15597;50.914;6.638;2023-08-06T12:05:11;99948.66;;;19.94;61.39
28344;BME280;15597;50.914;6.638;2023-08-06T12:07:42;99962.16;;;19.91;61.17
28344;BME280;15597;50.914;6.638;2023-08-06T12:10:09;99950.78;;;19.89;61.47
28344;BME280;15597;50.914;6.638;2023-08-06T12:12:35;99956.06;;;19.89;61.05
28344;BME280;15597;50.914;6.638;2023-08-06T12:15:02;99958.72;;;19.89;60.95
28344;BME280;15597;50.914;6.638;2023-08-06T12:17:29;99952.50;;;19.90;61.47
28344;BME280;15597;50.914;6.638;2023-08-06T12:19:55;99953.16;;;19.94;61.38
28344;BME280;15597;50.914;6.638;2023-08-06T12:22:21;99952.06;;;19.96;61.37
28344;BME280;15597;50.914;6.638;2023-08-06T12:24:47;99963.41;;;19.98;61.16
28344;BME280;15597;50.914;6.638;2023-08-06T12:27:13;99967.78;;;19.99;61.09
28344;BME280;15597;50.914;6.638;2023-08-06T12:29:46;99959.81;;;19.99;60.83
28344;BME280;15597;50.914;6.638;2023-08-06T12:32:13;99965.13;;;19.99;60.85
28344;BME280;15597;50.914;6.638;2023-08-06T12:34:40;99965.84;;;20.02;60.50
28344;BME280;15597;50.914;6.638;2023-08-06T12:37:06;99968.72;;;19.98;60.99
28344;BME280;15597;50.914;6.638;2023-08-06T12:39:36;99974.78;;;20.00;60.70
28344;BME280;15597;50.914;6.638;2023-08-06T12:42:03;99973.81;;;20.02;60.96
28344;BME280;15597;50.914;6.638;2023-08-06T12:44:29;99974.91;;;19.99;60.95
28344;BME280;15597;50.914;6.638;2023-08-06T12:46:55;99976.47;;;20.02;60.92
28344;BME280;15597;50.914;6.638;2023-08-06T12:49:21;99975.44;;;20.04;61.13
28344;BME280;15597;50.914;6.638;2023-08-06T12:51:50;99983.59;;;20.01;60.87
28344;BME280;15597;50.914;6.638;2023-08-06T12:54:16;99993.78;;;20.07;60.64
28344;BME280;15597;50.914;6.638;2023-08-06T12:56:44;100000.16;;;20.05;60.55
28344;BME280;15597;50.914;6.638;2023-08-06T12:59:10;99995.38;;;20.10;60.87
28344;BME280;15597;50.914;6.638;2023-08-06T13:01:37;100000.91;;;20.07;60.86
28344;BME280;15597;50.914;6.638;2023-08-06T13:04:03;100004.28;;;20.09;60.98